• Join FlightAware (Why Join?)
  • Login
  • US Flag 
05:58AM EST


 

Airport Tracker/Info


-or-


 

Live Flight TrackerFlight Track Log ✈ VH-LNH ✈ 22-Jun-2013 ✈ YBRM / BME - YBRM / BME

Flight Track Log - Related Links

Times and Time Zones

All times are in EDT time to prevent confusion due to time zone crossing. See the VH-LNH flight status page for this flight to view local times or setup timezone preferences in your user account.

Time Position Orientation Groundspeed Altitude Reporting Facility
EDT Latitude Longitude Course Direction KTS MPH feet Rate Location/Type
07:49AM -17.9463 122.2353 360° North 100  Level Aus ATC (Calculated)
07:50AM -17.9463 122.2353 270° West 100  Level Aus ATC (Calculated)
07:52AM -17.9463 122.2349 270° West  Level FlightAware Approximate
07:52AM -17.9463 122.2353 270° West 100  Level Aus ATC (Calculated)
07:53AM -17.9463 122.2351 90° East  Level FlightAware Approximate
07:53AM -17.9463 122.2353 270° West 100  Level Aus ATC (Calculated)
07:54AM -17.9463 122.2350 270° West  Level FlightAware Approximate
07:55AM -17.9463 122.2350 270° West  Level FlightAware Approximate
07:56AM -17.9463 122.2353 90° East  Level FlightAware Approximate
07:57AM -17.9463 122.2355 90° East  Level FlightAware Approximate
07:58AM -17.9463 122.2353 270° West  Level FlightAware Approximate
07:59AM -17.9463 122.2355 90° East  Level FlightAware Approximate
07:59AM -17.9480 122.2315 65° Northeast 100  Level Aus ATC (Calculated)
08:01AM -17.9478 122.2318 65° Northeast  Level FlightAware Approximate
08:02AM -17.9477 122.2320 65° Northeast  Level FlightAware Approximate
08:02AM -17.9480 122.2315 65° Northeast 100  Level Aus ATC (Calculated)
08:03AM -17.9476 122.2323 65° Northeast  Level FlightAware Approximate
08:04AM -17.9478 122.2319 65° Northeast  Level FlightAware Approximate
08:05AM -17.9477 122.2321 65° Northeast  Level FlightAware Approximate
08:06AM -17.9476 122.2323 65° Northeast  Level FlightAware Approximate
08:07AM -17.9475 122.2326 65° Northeast  Level FlightAware Approximate
08:08AM -17.9474 122.2328 65° Northeast  Level FlightAware Approximate
08:09AM -17.9473 122.2330 65° Northeast  Level FlightAware Approximate
08:10AM -17.9472 122.2333 65° Northeast  Level FlightAware Approximate
08:11AM -17.9471 122.2335 65° Northeast  Level FlightAware Approximate
08:12AM -17.9470 122.2337 65° Northeast  Level FlightAware Approximate
08:13AM -17.9469 122.2339 65° Northeast  Level FlightAware Approximate
08:14AM -17.9468 122.2342 65° Northeast  Level FlightAware Approximate
08:15AM -17.9467 122.2344 65° Northeast  Level FlightAware Approximate
08:16AM -17.9466 122.2346 65° Northeast  Level FlightAware Approximate
08:17AM -17.9465 122.2349 65° Northeast  Level FlightAware Approximate
08:18AM -17.9464 122.2351 65° Northeast  Level FlightAware Approximate
08:18AM -17.9480 122.2315 65° Northeast 100  Level Aus ATC (Calculated)
08:19AM -17.9463 122.2353 65° Northeast  Level FlightAware Approximate
08:20AM -17.9478 122.2317 65° Northeast  Level FlightAware Approximate
08:21AM -17.9477 122.2320 66° East  Level FlightAware Approximate
08:22AM -17.9476 122.2322 66° East  Level FlightAware Approximate
08:23AM -17.9463 122.2353 245° Southwest  Level FlightAware Approximate
08:24AM -17.9464 122.2350 246° West  Level FlightAware Approximate
08:25AM -17.9465 122.2348 246° West  Level FlightAware Approximate
08:26AM -17.9466 122.2346 246° West  Level FlightAware Approximate
08:27AM -17.9467 122.2344 246° West  Level FlightAware Approximate
08:28AM -17.9468 122.2341 246° West  Level FlightAware Approximate
08:28AM -17.9480 122.2315 180° South 100  Level Aus ATC (Calculated)
08:28AM -17.9480 122.2315 65° Northeast 100  Level Aus ATC (Calculated)
08:29AM -17.9469 122.2339 246° West  Level FlightAware Approximate
08:30AM -17.9481 122.2312 245° Southwest  Level FlightAware Approximate
08:31AM -17.9482 122.2310 245° Southwest  Level FlightAware Approximate
08:32AM -17.9483 122.2307 245° Southwest  Level FlightAware Approximate
08:33AM -17.9484 122.2305 245° Southwest  Level FlightAware Approximate
08:34AM -17.9485 122.2303 245° Southwest  Level FlightAware Approximate
08:35AM -17.9486 122.2300 245° Southwest  Level FlightAware Approximate
08:36AM -17.9487 122.2298 245° Southwest  Level FlightAware Approximate
08:37AM -17.9488 122.2296 245° Southwest  Level FlightAware Approximate
08:38AM -17.9489 122.2294 245° Southwest  Level FlightAware Approximate
08:39AM -17.9490 122.2291 245° Southwest  Level FlightAware Approximate
08:40AM -17.9491 122.2289 245° Southwest  Level FlightAware Approximate
08:41AM -17.9492 122.2287 246° West  Level FlightAware Approximate
08:42AM -17.9493 122.2284 246° West  Level FlightAware Approximate
08:43AM -17.9494 122.2282 246° West  Level FlightAware Approximate
08:44AM -17.9495 122.2280 246° West  Level FlightAware Approximate
08:45AM -17.9496 122.2278 246° West  Level FlightAware Approximate
08:46AM -17.9496 122.2277 245° Southwest  Level FlightAware Approximate
08:47AM -17.9494 122.2279 245° Southwest  Level Estimated
08:48AM -17.9496 122.2277 245° Southwest  Level FlightAware Approximate
08:49AM -17.9494 122.2279 245° Southwest  Level Estimated
08:50AM -17.9496 122.2277 245° Southwest  Level FlightAware Approximate
08:51AM -17.9494 122.2279 245° Southwest  Level Estimated
08:52AM -17.9496 122.2277 245° Southwest  Level FlightAware Approximate
08:53AM -17.9494 122.2279 245° Southwest  Level Estimated
08:54AM -17.9496 122.2277 245° Southwest  Level FlightAware Approximate
08:55AM -17.9494 122.2279 245° Southwest  Level Estimated
08:56AM -17.9496 122.2277 245° Southwest  Level FlightAware Approximate
08:57AM -17.9494 122.2279 245° Southwest  Level Estimated
08:58AM -17.9496 122.2277 245° Southwest  Level FlightAware Approximate
08:59AM -17.9494 122.2279 245° Southwest  Level Estimated
09:00AM -17.9496 122.2277 245° Southwest  Level FlightAware Approximate